Norton, Virginia
Current Conditions -  °F | °C
As of 5:15 PM on Sunday 25 Jan 2015 (Local Time) from KLNP Reporting Station
Overcast Overcast  
Wind Chill: 41°   Ceiling: 7000
Heat Index: 45°   Visibility: 10mi
Dew Point: 28°   Wind: 6mph
Humidity: 53%   Direction: 200°SSW
Pressure: 29.7"   Gusts: NA
Location:  36.93°N, 82.63°W
Report Text: KLNP 252215Z AUTO 20005KT 10SM SCT055 BKN070 OVC080 07/M02 A2970 RMK AO2
Loading
Personal Weather Stations






























Interactive Weather Map New forecast layout! Learn more

10-Day Weather Forecast

Advertisements
Track Severe Weather on mobile